createdAt,value
2022-12-12T00:02:12.631Z,8.30
2022-12-12T00:04:41.139Z,8.30
2022-12-12T00:07:09.474Z,8.50
2022-12-12T00:09:37.977Z,9.10
2022-12-12T00:12:06.798Z,8.10
2022-12-12T00:14:35.265Z,8.10
2022-12-12T00:17:03.686Z,8.10
2022-12-12T00:19:32.115Z,8.20
2022-12-12T00:22:00.509Z,9.10
2022-12-12T00:24:29.003Z,9.10
2022-12-12T00:26:57.324Z,8.70
2022-12-12T00:29:26.072Z,8.60
2022-12-12T00:31:55.441Z,8.80
2022-12-12T00:34:23.754Z,8.40
2022-12-12T00:36:52.138Z,7.90
2022-12-12T00:39:20.864Z,9.00
2022-12-12T00:41:52.708Z,8.30
2022-12-12T00:44:21.047Z,8.70
2022-12-12T00:46:49.500Z,8.60
2022-12-12T00:49:17.923Z,7.80
2022-12-12T00:51:46.603Z,8.80
2022-12-12T00:54:14.919Z,7.70
2022-12-12T00:56:49.556Z,7.30
2022-12-12T00:59:18.026Z,8.20
2022-12-12T01:01:47.594Z,7.20
2022-12-12T01:04:16.386Z,8.20
2022-12-12T01:06:44.830Z,7.50
2022-12-12T01:09:13.503Z,7.20
2022-12-12T01:11:41.899Z,7.80
2022-12-12T01:14:10.358Z,7.30
2022-12-12T01:16:38.866Z,8.40
2022-12-12T01:19:07.329Z,8.50
2022-12-12T01:21:37.086Z,6.80
2022-12-12T01:24:05.781Z,7.30
2022-12-12T01:26:34.500Z,7.00
2022-12-12T01:29:02.887Z,7.50
2022-12-12T01:31:31.357Z,7.30
2022-12-12T01:33:59.793Z,7.80
2022-12-12T01:36:28.331Z,7.90
2022-12-12T01:38:57.485Z,7.10
2022-12-12T01:41:25.862Z,8.50
2022-12-12T01:43:54.534Z,7.80
2022-12-12T01:46:22.855Z,7.50
2022-12-12T01:48:56.646Z,6.70
2022-12-12T01:51:27.829Z,7.30
2022-12-12T01:54:07.546Z,7.70
2022-12-12T01:56:39.140Z,8.20
2022-12-12T01:59:10.399Z,7.80
2022-12-12T02:01:40.484Z,7.70
2022-12-12T02:04:11.008Z,7.80
2022-12-12T02:06:41.052Z,8.70
2022-12-12T02:09:13.545Z,7.70
2022-12-12T02:11:48.647Z,8.70
2022-12-12T02:14:27.795Z,8.50
2022-12-12T02:17:17.437Z,8.40
2022-12-12T02:20:13.554Z,8.50
2022-12-12T02:23:03.146Z,8.10
2022-12-12T02:26:02.644Z,9.10
2022-12-12T02:28:46.067Z,9.40
2022-12-12T02:31:35.106Z,9.60
2022-12-12T02:34:16.128Z,10.10
2022-12-12T02:37:03.448Z,8.60
2022-12-12T02:39:48.014Z,8.10
2022-12-12T02:42:47.428Z,8.80
2022-12-12T02:45:43.233Z,7.80
2022-12-12T02:48:27.177Z,9.30
2022-12-12T02:50:59.400Z,9.70
2022-12-12T02:53:28.337Z,8.30
2022-12-12T02:56:09.386Z,9.40
2022-12-12T02:58:38.920Z,9.90
2022-12-12T03:01:20.953Z,8.30
2022-12-12T03:04:16.923Z,9.60
2022-12-12T03:07:14.619Z,8.90
2022-12-12T03:10:47.668Z,9.30
2022-12-12T03:13:21.883Z,8.80
2022-12-12T03:16:11.580Z,9.50
2022-12-12T03:19:09.010Z,8.80
2022-12-12T03:21:53.358Z,9.20
2022-12-12T03:24:36.744Z,8.70
2022-12-12T03:27:22.584Z,9.60
2022-12-12T03:30:12.718Z,9.30
2022-12-12T03:33:20.084Z,9.40
2022-12-12T03:36:03.945Z,10.50
2022-12-12T03:38:38.612Z,9.80
2022-12-12T03:41:14.976Z,9.10
2022-12-12T03:44:05.101Z,10.00
2022-12-12T03:46:40.852Z,9.80
2022-12-12T03:49:28.237Z,9.00
2022-12-12T03:52:06.489Z,9.30
2022-12-12T03:54:42.299Z,8.90
2022-12-12T03:57:39.249Z,9.50
2022-12-12T04:00:15.441Z,9.00
2022-12-12T04:03:18.947Z,9.80
2022-12-12T04:06:37.693Z,8.80
2022-12-12T04:09:31.700Z,8.20
2022-12-12T04:12:33.294Z,7.70
2022-12-12T04:15:30.604Z,8.60
2022-12-12T04:18:17.585Z,9.80
2022-12-12T04:21:13.087Z,9.00
2022-12-12T04:24:03.311Z,8.20
2022-12-12T04:26:42.789Z,9.00
2022-12-12T04:29:16.832Z,8.20
2022-12-12T04:32:13.410Z,8.70
2022-12-12T04:34:41.727Z,8.40
2022-12-12T04:37:14.178Z,8.60
2022-12-12T04:39:44.884Z,8.30
2022-12-12T04:42:18.361Z,7.70
2022-12-12T04:44:47.755Z,7.60
2022-12-12T04:47:17.667Z,8.50
2022-12-12T04:49:48.438Z,9.00
2022-12-12T04:52:19.656Z,8.80
2022-12-12T04:54:55.074Z,9.10
2022-12-12T04:57:50.564Z,7.30
2022-12-12T05:00:20.451Z,7.20
2022-12-12T05:03:18.125Z,7.00
2022-12-12T05:05:58.159Z,7.20
2022-12-12T05:08:48.342Z,9.00
2022-12-12T05:11:22.348Z,8.30
2022-12-12T05:13:51.074Z,7.50
2022-12-12T05:16:25.569Z,7.50
2022-12-12T05:18:53.952Z,6.90
2022-12-12T05:21:22.583Z,7.80
2022-12-12T05:23:51.030Z,7.00
2022-12-12T05:26:26.361Z,7.90
2022-12-12T05:28:55.133Z,8.10
2022-12-12T05:31:24.135Z,7.40
2022-12-12T05:33:52.874Z,7.50
2022-12-12T05:36:21.894Z,6.70
2022-12-12T05:38:50.459Z,7.50
2022-12-12T05:41:18.940Z,7.40
2022-12-12T05:43:47.320Z,7.20
2022-12-12T05:46:15.836Z,7.60
2022-12-12T05:48:44.882Z,7.00
2022-12-12T05:51:13.313Z,6.30
2022-12-12T05:53:43.199Z,6.30
2022-12-12T05:56:13.360Z,6.50
2022-12-12T05:58:42.110Z,7.70
2022-12-12T06:01:11.072Z,7.10
2022-12-12T06:03:39.466Z,6.90
2022-12-12T06:06:07.921Z,6.80
2022-12-12T06:08:36.374Z,6.40
2022-12-12T06:11:06.972Z,6.10
2022-12-12T06:13:35.457Z,7.00
2022-12-12T06:16:16.692Z,6.80
2022-12-12T06:18:46.646Z,5.80
2022-12-12T06:21:15.055Z,6.10
2022-12-12T06:23:43.348Z,6.30
2022-12-12T06:26:15.612Z,6.00
2022-12-12T06:28:44.365Z,5.70
2022-12-12T06:31:13.355Z,5.50
2022-12-12T06:33:43.418Z,6.30
2022-12-12T06:36:16.925Z,4.90
2022-12-12T06:38:45.352Z,5.40
2022-12-12T06:41:15.377Z,4.80
2022-12-12T06:43:44.460Z,5.70
2022-12-12T06:46:19.679Z,5.20
2022-12-12T06:48:48.712Z,5.60
2022-12-12T06:51:21.711Z,5.50
2022-12-12T06:53:50.199Z,5.60
2022-12-12T06:56:21.101Z,5.20
2022-12-12T06:58:49.749Z,5.20
2022-12-12T07:01:20.725Z,4.80
2022-12-12T07:03:50.743Z,5.40
2022-12-12T07:06:22.221Z,5.20
2022-12-12T07:08:52.257Z,5.70
2022-12-12T07:11:24.141Z,5.40
2022-12-12T07:13:53.689Z,7.10
2022-12-12T07:16:22.501Z,5.50
2022-12-12T07:18:50.862Z,4.90
2022-12-12T07:21:20.576Z,5.20
2022-12-12T07:23:49.143Z,5.40
2022-12-12T07:26:23.177Z,5.80
2022-12-12T07:28:52.228Z,6.00
2022-12-12T07:31:24.926Z,4.80
2022-12-12T07:33:55.161Z,7.00
2022-12-12T07:36:23.699Z,5.20
2022-12-12T07:38:52.431Z,6.70
2022-12-12T07:41:21.250Z,5.30
2022-12-12T07:43:51.283Z,5.30
2022-12-12T07:46:25.653Z,5.50
2022-12-12T07:48:54.702Z,5.20
2022-12-12T07:51:24.655Z,5.10
2022-12-12T07:53:53.220Z,4.80
2022-12-12T07:56:21.822Z,4.60
2022-12-12T07:58:50.471Z,4.30
2022-12-12T08:01:23.114Z,5.50
2022-12-12T08:03:53.555Z,3.80
2022-12-12T08:06:23.781Z,5.70
2022-12-12T08:08:53.573Z,5.50
2022-12-12T08:11:24.664Z,5.30
2022-12-12T08:13:53.663Z,4.70
2022-12-12T08:16:28.801Z,5.20
2022-12-12T08:18:59.111Z,4.90
2022-12-12T08:21:28.866Z,5.60
2022-12-12T08:23:58.815Z,5.60
2022-12-12T08:26:28.708Z,6.30
2022-12-12T08:28:57.738Z,4.90
2022-12-12T08:31:27.366Z,4.80
2022-12-12T08:33:56.573Z,5.00
2022-12-12T08:36:30.379Z,5.20
2022-12-12T08:39:04.320Z,4.40
2022-12-12T08:41:32.732Z,5.10
2022-12-12T08:44:01.170Z,5.00
2022-12-12T08:46:29.610Z,5.20
2022-12-12T08:48:57.964Z,5.20
2022-12-12T08:51:26.467Z,6.10
2022-12-12T08:53:55.529Z,5.00
2022-12-12T08:56:33.681Z,4.40
2022-12-12T08:59:02.917Z,4.60
2022-12-12T09:01:31.428Z,3.70
2022-12-12T09:04:00.169Z,4.20
2022-12-12T09:06:29.034Z,3.90
2022-12-12T09:08:57.962Z,4.70
2022-12-12T09:11:26.663Z,4.50
2022-12-12T09:13:55.037Z,4.50
2022-12-12T09:16:26.679Z,4.80
2022-12-12T09:18:55.174Z,4.40
2022-12-12T09:21:24.190Z,4.40
2022-12-12T09:23:52.797Z,3.40
2022-12-12T09:26:21.342Z,3.80
2022-12-12T09:28:50.256Z,4.20
2022-12-12T09:31:19.180Z,4.00
2022-12-12T09:33:48.048Z,4.20
2022-12-12T09:36:16.908Z,3.60
2022-12-12T09:38:45.337Z,4.40
2022-12-12T09:41:19.834Z,4.00
2022-12-12T09:44:08.182Z,4.40
2022-12-12T09:47:05.896Z,4.20
2022-12-12T09:49:49.538Z,4.50
2022-12-12T09:52:38.572Z,4.00
2022-12-12T09:55:43.940Z,4.00
2022-12-12T09:58:30.357Z,3.20
2022-12-12T10:01:34.046Z,3.40
2022-12-12T10:04:20.890Z,4.00
2022-12-12T10:07:01.655Z,3.60
2022-12-12T10:09:42.202Z,3.20
2022-12-12T10:12:15.479Z,3.20
2022-12-12T10:14:48.267Z,2.70
2022-12-12T10:17:28.561Z,3.20
2022-12-12T10:20:21.281Z,3.00
2022-12-12T10:23:28.585Z,3.30
2022-12-12T10:26:18.494Z,3.10
2022-12-12T10:28:53.417Z,2.80
2022-12-12T10:32:05.135Z,2.70
2022-12-12T10:34:55.318Z,2.40
2022-12-12T10:37:29.516Z,2.50
2022-12-12T10:40:19.178Z,2.90
2022-12-12T10:43:24.065Z,2.90
2022-12-12T10:48:29.765Z,2.50
2022-12-12T10:51:04.856Z,2.50
2022-12-12T10:53:34.109Z,2.40
2022-12-12T10:56:12.639Z,2.80
2022-12-12T10:58:43.787Z,2.20
2022-12-12T11:01:38.451Z,2.60
2022-12-12T11:04:14.433Z,2.30
2022-12-12T11:06:51.484Z,2.70
2022-12-12T11:09:26.285Z,2.60
2022-12-12T11:12:01.179Z,2.60
2022-12-12T11:14:38.020Z,3.10
2022-12-12T11:17:30.226Z,3.00
2022-12-12T11:20:00.672Z,3.10
2022-12-12T11:22:33.551Z,3.10
2022-12-12T11:25:02.047Z,3.00
2022-12-12T11:27:41.147Z,2.90
2022-12-12T11:30:40.075Z,3.00
2022-12-12T11:33:17.273Z,2.80
2022-12-12T11:35:47.886Z,3.60
2022-12-12T11:38:22.900Z,2.90
2022-12-12T11:41:07.712Z,3.00
2022-12-12T11:43:39.161Z,3.60
2022-12-12T11:46:31.660Z,2.90
2022-12-12T11:49:04.230Z,2.80
2022-12-12T11:51:44.789Z,2.80
2022-12-12T11:54:16.990Z,2.80
2022-12-12T11:57:23.096Z,2.30
2022-12-12T12:00:12.165Z,2.20
2022-12-12T12:03:07.833Z,2.00
2022-12-12T12:06:14.466Z,2.50
2022-12-12T12:08:51.873Z,2.50
2022-12-12T12:11:38.650Z,1.90
2022-12-12T12:14:34.611Z,2.00
2022-12-12T12:17:22.981Z,2.20
2022-12-12T12:20:12.536Z,2.10
2022-12-12T12:23:02.372Z,2.20
2022-12-12T12:26:22.584Z,2.00
2022-12-12T12:29:10.185Z,2.00
2022-12-12T12:31:52.801Z,1.90
2022-12-12T12:34:30.583Z,2.00
2022-12-12T12:37:24.887Z,2.20
2022-12-12T12:40:12.407Z,2.00
2022-12-12T12:42:56.353Z,2.40
2022-12-12T12:45:45.802Z,2.20
2022-12-12T12:48:30.429Z,1.80
2022-12-12T12:51:13.864Z,1.80
2022-12-12T12:54:31.842Z,2.70
2022-12-12T12:57:16.601Z,2.10
2022-12-12T12:59:49.100Z,2.20
2022-12-12T13:02:29.116Z,2.10
2022-12-12T13:05:07.828Z,1.40
2022-12-12T13:08:23.237Z,1.90
2022-12-12T13:10:55.770Z,2.00
2022-12-12T13:13:29.308Z,2.20
2022-12-12T13:16:06.015Z,1.90
2022-12-12T13:18:48.461Z,2.10
2022-12-12T13:21:33.703Z,2.10
2022-12-12T13:24:27.014Z,1.90
2022-12-12T13:27:12.963Z,2.40
2022-12-12T13:29:48.962Z,2.00
2022-12-12T13:32:35.993Z,2.20
2022-12-12T13:35:12.005Z,2.50
2022-12-12T13:37:53.526Z,2.30
2022-12-12T13:40:27.369Z,1.80
2022-12-12T13:45:39.256Z,2.00
2022-12-12T13:48:10.701Z,2.40
2022-12-12T13:50:39.111Z,2.30
2022-12-12T13:53:07.487Z,2.20
2022-12-12T13:55:36.857Z,1.70
2022-12-12T13:58:17.758Z,2.60
2022-12-12T14:00:46.993Z,2.10
2022-12-12T14:03:31.064Z,3.40
2022-12-12T14:06:11.026Z,2.40
2022-12-12T14:08:48.964Z,2.00
2022-12-12T14:11:35.194Z,1.70
2022-12-12T14:14:16.334Z,2.10
2022-12-12T14:16:53.156Z,2.10
2022-12-12T14:19:30.492Z,2.00
2022-12-12T14:21:59.172Z,2.20
2022-12-12T14:24:33.285Z,2.40
2022-12-12T14:27:06.555Z,2.00
2022-12-12T14:29:40.066Z,2.30
2022-12-12T14:32:11.614Z,2.00
2022-12-12T14:34:59.027Z,2.40
2022-12-12T14:37:52.012Z,2.20
2022-12-12T14:40:27.890Z,2.20
2022-12-12T14:43:18.966Z,1.60
2022-12-12T14:45:49.991Z,2.00
2022-12-12T14:48:26.440Z,1.80
2022-12-12T14:50:57.818Z,2.80
2022-12-12T14:53:32.552Z,2.00
2022-12-12T14:56:07.619Z,2.40
2022-12-12T14:58:41.292Z,2.80
2022-12-12T15:01:10.394Z,2.40
2022-12-12T15:03:51.431Z,2.40
2022-12-12T15:06:39.921Z,2.30
2022-12-12T15:09:30.021Z,2.50
2022-12-12T15:12:10.401Z,1.80
2022-12-12T15:14:40.914Z,1.90
2022-12-12T15:17:28.602Z,2.50
2022-12-12T15:20:20.625Z,2.70
2022-12-12T15:22:55.228Z,2.80
2022-12-12T15:25:30.319Z,2.80
2022-12-12T15:27:59.463Z,2.40
2022-12-12T15:30:30.795Z,2.40
2022-12-12T15:33:03.709Z,2.80
2022-12-12T15:35:32.965Z,1.90
2022-12-12T15:38:13.278Z,2.90
2022-12-12T15:40:45.951Z,2.40
2022-12-12T15:43:17.624Z,2.30
2022-12-12T15:45:53.512Z,1.70
2022-12-12T15:48:23.440Z,2.30
2022-12-12T15:50:52.322Z,2.50
2022-12-12T15:53:32.665Z,2.50
2022-12-12T15:56:14.813Z,3.60
2022-12-12T15:58:45.980Z,2.70
2022-12-12T16:01:20.966Z,2.40
2022-12-12T16:04:05.651Z,3.30
2022-12-12T16:06:43.052Z,3.40
2022-12-12T16:09:11.472Z,4.10
2022-12-12T16:11:45.873Z,3.40
2022-12-12T16:14:38.644Z,3.60
2022-12-12T16:17:20.085Z,3.40
2022-12-12T16:20:04.599Z,4.20
2022-12-12T16:22:45.966Z,4.60
2022-12-12T16:25:26.811Z,4.40
2022-12-12T16:28:25.910Z,5.10
2022-12-12T16:31:06.788Z,5.30
2022-12-12T16:33:38.068Z,5.10
2022-12-12T16:36:09.240Z,5.60
2022-12-12T16:38:40.435Z,5.80
2022-12-12T16:41:14.245Z,5.80
2022-12-12T16:43:42.900Z,5.40
2022-12-12T16:46:29.257Z,5.90
2022-12-12T16:49:04.695Z,6.10
2022-12-12T16:51:35.550Z,7.40
2022-12-12T16:54:04.321Z,7.10
2022-12-12T16:56:32.944Z,6.40
2022-12-12T16:59:01.405Z,6.70
2022-12-12T17:01:33.320Z,6.70
2022-12-12T17:04:16.555Z,7.30
2022-12-12T17:06:45.108Z,7.60
2022-12-12T17:09:13.696Z,6.80
2022-12-12T17:11:42.394Z,6.40
2022-12-12T17:14:26.575Z,6.50
2022-12-12T17:16:57.094Z,7.80
2022-12-12T17:19:29.058Z,7.60
2022-12-12T17:21:58.841Z,7.20
2022-12-12T17:24:28.030Z,8.10
2022-12-12T17:26:59.448Z,6.80
2022-12-12T17:29:28.903Z,7.10
2022-12-12T17:31:57.640Z,6.90
2022-12-12T17:34:26.158Z,7.60
2022-12-12T17:36:55.583Z,7.30
2022-12-12T17:39:24.276Z,8.00
2022-12-12T17:41:53.454Z,7.10
2022-12-12T17:44:24.300Z,6.70
2022-12-12T17:46:53.604Z,7.20
2022-12-12T17:49:22.677Z,7.40
2022-12-12T17:51:51.230Z,8.00
2022-12-12T17:54:20.220Z,7.70
2022-12-12T17:56:50.149Z,7.50
2022-12-12T17:59:18.855Z,6.90
2022-12-12T18:01:53.310Z,7.50
2022-12-12T18:04:27.688Z,7.70
2022-12-12T18:06:57.606Z,7.50
2022-12-12T18:09:26.351Z,7.30
2022-12-12T18:11:55.118Z,8.20
2022-12-12T18:14:24.651Z,7.10
2022-12-12T18:16:53.951Z,7.30
2022-12-12T18:19:25.515Z,8.60
2022-12-12T18:22:02.857Z,8.70
2022-12-12T18:24:34.596Z,8.10
2022-12-12T18:27:05.329Z,7.90
2022-12-12T18:29:34.975Z,7.80
2022-12-12T18:32:05.808Z,8.20
2022-12-12T18:34:34.828Z,8.40
2022-12-12T18:37:04.676Z,8.70
2022-12-12T18:39:34.530Z,8.70
2022-12-12T18:42:03.383Z,9.00
2022-12-12T18:44:35.227Z,7.40
2022-12-12T18:47:04.432Z,9.10
2022-12-12T18:49:34.202Z,8.70
2022-12-12T18:52:05.262Z,9.00
2022-12-12T18:54:36.755Z,7.90
2022-12-12T18:57:06.970Z,8.20
2022-12-12T18:59:36.845Z,8.70
2022-12-12T19:02:14.729Z,9.20
2022-12-12T19:04:46.099Z,9.10
2022-12-12T19:07:19.161Z,9.20
2022-12-12T19:09:51.204Z,8.70
2022-12-12T19:12:22.821Z,9.60
2022-12-12T19:15:15.760Z,9.10
2022-12-12T19:17:45.083Z,9.20
2022-12-12T19:20:14.761Z,8.60
2022-12-12T19:22:47.100Z,8.30
2022-12-12T19:25:19.431Z,9.00
2022-12-12T19:27:49.648Z,7.20
2022-12-12T19:30:19.570Z,8.60
2022-12-12T19:32:50.087Z,9.10
2022-12-12T19:35:20.310Z,8.20
2022-12-12T19:37:51.227Z,8.20
2022-12-12T19:40:22.103Z,7.50
2022-12-12T19:42:53.570Z,8.20
2022-12-12T19:45:40.200Z,8.70
2022-12-12T19:48:11.903Z,8.20
2022-12-12T19:50:43.179Z,7.90
2022-12-12T19:53:13.398Z,8.10
2022-12-12T19:55:48.205Z,8.50
2022-12-12T19:58:18.372Z,8.70
2022-12-12T20:00:47.905Z,9.50
2022-12-12T20:03:17.968Z,8.80
2022-12-12T20:05:50.503Z,8.00
2022-12-12T20:08:23.036Z,7.80
2022-12-12T20:10:52.661Z,8.40
2022-12-12T20:13:22.247Z,8.80
2022-12-12T20:15:51.711Z,8.30
2022-12-12T20:18:21.503Z,8.60
2022-12-12T20:20:57.947Z,7.70
2022-12-12T20:23:27.491Z,8.70
2022-12-12T20:25:57.386Z,9.30
2022-12-12T20:28:27.368Z,9.40
2022-12-12T20:31:29.198Z,8.80
2022-12-12T20:34:03.459Z,8.50
2022-12-12T20:36:35.367Z,7.90
2022-12-12T20:39:08.130Z,7.20
2022-12-12T20:41:39.885Z,6.70
2022-12-12T20:44:09.531Z,8.50
2022-12-12T20:46:42.829Z,9.60
2022-12-12T20:49:17.915Z,8.50
2022-12-12T20:51:57.673Z,8.50
2022-12-12T20:54:29.648Z,8.20
2022-12-12T20:57:00.454Z,8.60
2022-12-12T20:59:31.842Z,10.50
2022-12-12T21:02:02.775Z,9.30
2022-12-12T21:04:33.437Z,9.20
2022-12-12T21:07:01.965Z,8.60
2022-12-12T21:09:32.461Z,8.70
2022-12-12T21:12:01.732Z,8.60
2022-12-12T21:14:33.324Z,9.20
2022-12-12T21:17:02.644Z,7.90
2022-12-12T21:19:32.254Z,7.90
2022-12-12T21:22:02.181Z,8.00
2022-12-12T21:24:31.720Z,8.30
2022-12-12T21:27:02.689Z,8.80
2022-12-12T21:29:31.121Z,8.60
2022-12-12T21:31:59.737Z,8.10
2022-12-12T21:34:28.110Z,7.60
2022-12-12T21:36:57.118Z,7.20
2022-12-12T21:39:28.785Z,7.40
2022-12-12T21:41:57.103Z,7.30
2022-12-12T21:44:26.231Z,7.60
2022-12-12T21:46:55.325Z,7.10
2022-12-12T21:49:27.123Z,7.30
2022-12-12T21:52:04.158Z,6.60
2022-12-12T21:54:33.019Z,8.50
2022-12-12T21:57:02.887Z,7.60
2022-12-12T21:59:31.230Z,7.70
2022-12-12T22:02:00.834Z,7.60
2022-12-12T22:04:30.301Z,6.70
2022-12-12T22:06:59.074Z,7.00
2022-12-12T22:09:27.728Z,7.10
2022-12-12T22:12:04.176Z,7.70
2022-12-12T22:14:34.969Z,7.90
2022-12-12T22:17:05.251Z,7.40
2022-12-12T22:19:33.767Z,6.60
2022-12-12T22:22:02.314Z,6.50
2022-12-12T22:24:30.757Z,8.10
2022-12-12T22:26:59.153Z,6.50
2022-12-12T22:29:27.601Z,6.70
2022-12-12T22:31:56.162Z,7.00
2022-12-12T22:34:25.344Z,6.80
2022-12-12T22:36:53.918Z,6.50
2022-12-12T22:39:28.053Z,6.40
2022-12-12T22:41:57.153Z,6.10
2022-12-12T22:44:27.025Z,7.00
2022-12-12T22:46:56.111Z,6.50
2022-12-12T22:49:26.927Z,6.60
2022-12-12T22:51:58.905Z,6.70
2022-12-12T22:54:27.947Z,6.80
2022-12-12T22:56:56.454Z,7.20
2022-12-12T22:59:25.133Z,6.00
2022-12-12T23:01:53.731Z,5.20
2022-12-12T23:04:22.121Z,5.50
2022-12-12T23:06:50.592Z,5.00
2022-12-12T23:09:22.567Z,5.60
2022-12-12T23:11:50.974Z,5.20
2022-12-12T23:14:22.994Z,4.40
2022-12-12T23:16:52.546Z,4.50
2022-12-12T23:19:26.305Z,4.60
2022-12-12T23:21:54.720Z,5.60
2022-12-12T23:24:23.299Z,5.10
2022-12-12T23:26:52.234Z,4.90
2022-12-12T23:29:21.237Z,5.30
2022-12-12T23:31:50.444Z,5.70
2022-12-12T23:34:23.552Z,4.80
2022-12-12T23:36:54.300Z,5.10
2022-12-12T23:39:24.109Z,5.60
2022-12-12T23:41:52.906Z,5.20
2022-12-12T23:44:22.915Z,4.50
2022-12-12T23:46:51.932Z,4.80
2022-12-12T23:49:23.818Z,5.80
2022-12-12T23:51:57.570Z,5.10
2022-12-12T23:54:35.315Z,4.10
2022-12-12T23:57:13.369Z,3.70
2022-12-12T23:59:42.422Z,4.30
